sensor_id;sensor_type;location;lat;lon;timestamp;P1;durP1;ratioP1;P2;durP2;ratioP2
75526;SDS011;64107;49.248;7.006;2023-08-06T00:01:40;2.53;;;1.58;;
75526;SDS011;64107;49.248;7.006;2023-08-06T00:04:06;2.50;;;1.38;;
75526;SDS011;64107;49.248;7.006;2023-08-06T00:06:32;3.08;;;1.52;;
75526;SDS011;64107;49.248;7.006;2023-08-06T00:08:58;2.38;;;1.38;;
75526;SDS011;64107;49.248;7.006;2023-08-06T00:11:24;3.30;;;1.90;;
75526;SDS011;64107;49.248;7.006;2023-08-06T00:13:50;2.65;;;1.25;;
75526;SDS011;64107;49.248;7.006;2023-08-06T00:16:16;2.63;;;1.30;;
75526;SDS011;64107;49.248;7.006;2023-08-06T00:18:42;2.75;;;1.52;;
75526;SDS011;64107;49.248;7.006;2023-08-06T00:21:09;4.00;;;0.77;;
75526;SDS011;64107;49.248;7.006;2023-08-06T00:23:37;3.90;;;1.70;;
75526;SDS011;64107;49.248;7.006;2023-08-06T00:26:05;1.83;;;0.80;;
75526;SDS011;64107;49.248;7.006;2023-08-06T00:28:31;0.95;;;0.73;;
75526;SDS011;64107;49.248;7.006;2023-08-06T00:30:57;2.38;;;1.33;;
75526;SDS011;64107;49.248;7.006;2023-08-06T00:33:24;0.98;;;0.55;;
75526;SDS011;64107;49.248;7.006;2023-08-06T00:35:50;0.68;;;0.30;;
75526;SDS011;64107;49.248;7.006;2023-08-06T00:38:16;4.15;;;1.33;;
75526;SDS011;64107;49.248;7.006;2023-08-06T00:40:42;3.47;;;0.88;;
75526;SDS011;64107;49.248;7.006;2023-08-06T00:43:09;1.98;;;0.70;;
75526;SDS011;64107;49.248;7.006;2023-08-06T00:45:35;0.95;;;0.55;;
75526;SDS011;64107;49.248;7.006;2023-08-06T00:48:02;1.15;;;0.52;;
75526;SDS011;64107;49.248;7.006;2023-08-06T00:50:30;0.85;;;0.45;;
75526;SDS011;64107;49.248;7.006;2023-08-06T00:52:56;3.22;;;1.40;;
75526;SDS011;64107;49.248;7.006;2023-08-06T00:55:22;1.85;;;0.47;;
75526;SDS011;64107;49.248;7.006;2023-08-06T00:57:48;3.55;;;1.13;;
75526;SDS011;64107;49.248;7.006;2023-08-06T01:00:16;1.05;;;0.63;;
75526;SDS011;64107;49.248;7.006;2023-08-06T01:02:42;3.63;;;1.02;;
75526;SDS011;64107;49.248;7.006;2023-08-06T01:05:08;2.33;;;1.20;;
75526;SDS011;64107;49.248;7.006;2023-08-06T01:07:51;4.53;;;0.90;;
75526;SDS011;64107;49.248;7.006;2023-08-06T01:11:11;2.30;;;0.98;;
75526;SDS011;64107;49.248;7.006;2023-08-06T01:13:39;2.50;;;0.70;;
75526;SDS011;64107;49.248;7.006;2023-08-06T01:16:08;7.80;;;0.85;;
75526;SDS011;64107;49.248;7.006;2023-08-06T01:18:35;2.38;;;1.30;;
75526;SDS011;64107;49.248;7.006;2023-08-06T01:21:02;5.25;;;0.75;;
75526;SDS011;64107;49.248;7.006;2023-08-06T01:23:28;2.30;;;0.95;;
75526;SDS011;64107;49.248;7.006;2023-08-06T01:26:01;3.58;;;1.40;;
75526;SDS011;64107;49.248;7.006;2023-08-06T01:28:41;1.52;;;1.02;;
75526;SDS011;64107;49.248;7.006;2023-08-06T01:31:14;7.13;;;1.20;;
75526;SDS011;64107;49.248;7.006;2023-08-06T01:33:44;3.10;;;1.40;;
75526;SDS011;64107;49.248;7.006;2023-08-06T01:36:10;2.60;;;1.48;;
75526;SDS011;64107;49.248;7.006;2023-08-06T01:38:37;2.75;;;0.98;;
75526;SDS011;64107;49.248;7.006;2023-08-06T01:41:03;1.02;;;0.50;;
75526;SDS011;64107;49.248;7.006;2023-08-06T01:43:29;1.88;;;1.10;;
75526;SDS011;64107;49.248;7.006;2023-08-06T01:45:55;4.05;;;1.10;;
75526;SDS011;64107;49.248;7.006;2023-08-06T01:48:21;3.58;;;0.98;;
75526;SDS011;64107;49.248;7.006;2023-08-06T01:50:47;0.35;;;0.30;;
75526;SDS011;64107;49.248;7.006;2023-08-06T01:53:13;0.70;;;0.68;;
75526;SDS011;64107;49.248;7.006;2023-08-06T01:55:39;3.15;;;0.90;;
75526;SDS011;64107;49.248;7.006;2023-08-06T01:58:05;1.60;;;0.40;;
75526;SDS011;64107;49.248;7.006;2023-08-06T02:00:31;1.05;;;0.70;;
75526;SDS011;64107;49.248;7.006;2023-08-06T02:02:57;2.30;;;0.73;;
75526;SDS011;64107;49.248;7.006;2023-08-06T02:05:23;1.45;;;0.70;;
75526;SDS011;64107;49.248;7.006;2023-08-06T02:07:49;1.23;;;0.68;;
75526;SDS011;64107;49.248;7.006;2023-08-06T02:10:15;0.73;;;0.73;;
75526;SDS011;64107;49.248;7.006;2023-08-06T02:12:41;1.80;;;0.50;;
75526;SDS011;64107;49.248;7.006;2023-08-06T02:15:08;0.40;;;0.30;;
75526;SDS011;64107;49.248;7.006;2023-08-06T02:17:34;1.10;;;0.98;;
75526;SDS011;64107;49.248;7.006;2023-08-06T02:20:00;1.30;;;0.50;;
75526;SDS011;64107;49.248;7.006;2023-08-06T02:22:26;5.72;;;1.20;;
75526;SDS011;64107;49.248;7.006;2023-08-06T02:24:52;1.45;;;0.57;;
75526;SDS011;64107;49.248;7.006;2023-08-06T02:27:18;0.98;;;0.30;;
75526;SDS011;64107;49.248;7.006;2023-08-06T02:29:44;2.38;;;0.40;;
75526;SDS011;64107;49.248;7.006;2023-08-06T02:32:10;2.30;;;0.30;;
75526;SDS011;64107;49.248;7.006;2023-08-06T02:34:36;2.45;;;0.38;;
75526;SDS011;64107;49.248;7.006;2023-08-06T02:37:03;0.73;;;0.30;;
75526;SDS011;64107;49.248;7.006;2023-08-06T02:39:29;0.60;;;0.60;;
75526;SDS011;64107;49.248;7.006;2023-08-06T02:41:55;0.75;;;0.63;;
75526;SDS011;64107;49.248;7.006;2023-08-06T02:44:21;2.08;;;0.60;;
75526;SDS011;64107;49.248;7.006;2023-08-06T02:46:47;1.63;;;0.40;;
75526;SDS011;64107;49.248;7.006;2023-08-06T02:52:35;5.90;;;0.63;;
75526;SDS011;64107;49.248;7.006;2023-08-06T02:55:03;0.75;;;0.35;;
75526;SDS011;64107;49.248;7.006;2023-08-06T02:57:30;1.05;;;0.50;;
75526;SDS011;64107;49.248;7.006;2023-08-06T02:59:56;1.90;;;0.93;;
75526;SDS011;64107;49.248;7.006;2023-08-06T03:02:22;1.33;;;1.20;;
75526;SDS011;64107;49.248;7.006;2023-08-06T03:04:48;3.00;;;0.60;;
75526;SDS011;64107;49.248;7.006;2023-08-06T03:07:14;3.92;;;0.50;;
75526;SDS011;64107;49.248;7.006;2023-08-06T03:12:44;1.38;;;0.32;;
75526;SDS011;64107;49.248;7.006;2023-08-06T03:15:11;0.57;;;0.40;;
75526;SDS011;64107;49.248;7.006;2023-08-06T03:17:37;1.35;;;0.60;;
75526;SDS011;64107;49.248;7.006;2023-08-06T03:20:03;1.08;;;0.55;;
75526;SDS011;64107;49.248;7.006;2023-08-06T03:22:30;1.67;;;0.57;;
75526;SDS011;64107;49.248;7.006;2023-08-06T03:24:56;0.52;;;0.40;;
75526;SDS011;64107;49.248;7.006;2023-08-06T03:27:22;0.60;;;0.40;;
75526;SDS011;64107;49.248;7.006;2023-08-06T03:29:49;0.77;;;0.17;;
75526;SDS011;64107;49.248;7.006;2023-08-06T03:32:15;1.08;;;0.40;;
75526;SDS011;64107;49.248;7.006;2023-08-06T03:34:41;0.75;;;0.40;;
75526;SDS011;64107;49.248;7.006;2023-08-06T03:37:07;0.93;;;0.30;;
75526;SDS011;64107;49.248;7.006;2023-08-06T03:39:33;2.10;;;0.50;;
75526;SDS011;64107;49.248;7.006;2023-08-06T03:42:00;2.03;;;0.25;;
75526;SDS011;64107;49.248;7.006;2023-08-06T03:44:26;2.03;;;0.70;;
75526;SDS011;64107;49.248;7.006;2023-08-06T03:46:53;1.50;;;0.57;;
75526;SDS011;64107;49.248;7.006;2023-08-06T03:49:19;1.63;;;0.50;;
75526;SDS011;64107;49.248;7.006;2023-08-06T03:51:45;5.60;;;0.50;;
75526;SDS011;64107;49.248;7.006;2023-08-06T03:54:11;0.80;;;0.40;;
75526;SDS011;64107;49.248;7.006;2023-08-06T03:56:38;1.08;;;0.35;;
75526;SDS011;64107;49.248;7.006;2023-08-06T03:59:04;0.90;;;0.45;;
75526;SDS011;64107;49.248;7.006;2023-08-06T04:01:30;0.93;;;0.20;;
75526;SDS011;64107;49.248;7.006;2023-08-06T04:03:56;1.00;;;0.38;;
75526;SDS011;64107;49.248;7.006;2023-08-06T04:06:22;3.88;;;0.93;;
75526;SDS011;64107;49.248;7.006;2023-08-06T04:08:48;1.67;;;0.90;;
75526;SDS011;64107;49.248;7.006;2023-08-06T04:11:14;0.30;;;0.22;;
75526;SDS011;64107;49.248;7.006;2023-08-06T04:13:43;2.83;;;0.82;;
75526;SDS011;64107;49.248;7.006;2023-08-06T04:16:09;0.70;;;0.25;;
75526;SDS011;64107;49.248;7.006;2023-08-06T04:18:35;3.35;;;0.77;;
75526;SDS011;64107;49.248;7.006;2023-08-06T04:21:02;2.33;;;0.80;;
75526;SDS011;64107;49.248;7.006;2023-08-06T04:23:28;0.35;;;0.35;;
75526;SDS011;64107;49.248;7.006;2023-08-06T04:25:57;0.30;;;0.30;;
75526;SDS011;64107;49.248;7.006;2023-08-06T04:28:23;0.82;;;0.50;;
75526;SDS011;64107;49.248;7.006;2023-08-06T04:30:49;0.20;;;0.20;;
75526;SDS011;64107;49.248;7.006;2023-08-06T04:33:15;0.50;;;0.50;;
75526;SDS011;64107;49.248;7.006;2023-08-06T04:35:41;0.30;;;0.30;;
75526;SDS011;64107;49.248;7.006;2023-08-06T04:38:07;1.45;;;0.65;;
75526;SDS011;64107;49.248;7.006;2023-08-06T04:40:34;0.82;;;0.20;;
75526;SDS011;64107;49.248;7.006;2023-08-06T04:43:01;0.28;;;0.28;;
75526;SDS011;64107;49.248;7.006;2023-08-06T04:45:27;0.45;;;0.13;;
75526;SDS011;64107;49.248;7.006;2023-08-06T04:47:53;0.30;;;0.25;;
75526;SDS011;64107;49.248;7.006;2023-08-06T04:50:19;0.20;;;0.15;;
75526;SDS011;64107;49.248;7.006;2023-08-06T04:52:46;0.88;;;0.63;;
75526;SDS011;64107;49.248;7.006;2023-08-06T04:55:12;1.10;;;0.30;;
75526;SDS011;64107;49.248;7.006;2023-08-06T04:57:38;0.82;;;0.35;;
75526;SDS011;64107;49.248;7.006;2023-08-06T05:00:04;3.58;;;0.80;;
75526;SDS011;64107;49.248;7.006;2023-08-06T05:02:31;1.20;;;0.50;;
75526;SDS011;64107;49.248;7.006;2023-08-06T05:04:57;0.50;;;0.50;;
75526;SDS011;64107;49.248;7.006;2023-08-06T05:07:23;0.98;;;0.43;;
75526;SDS011;64107;49.248;7.006;2023-08-06T05:09:49;1.20;;;0.40;;
75526;SDS011;64107;49.248;7.006;2023-08-06T05:12:16;0.52;;;0.38;;
75526;SDS011;64107;49.248;7.006;2023-08-06T05:14:42;1.65;;;0.40;;
75526;SDS011;64107;49.248;7.006;2023-08-06T05:17:08;0.95;;;0.52;;
75526;SDS011;64107;49.248;7.006;2023-08-06T05:19:34;1.02;;;0.30;;
75526;SDS011;64107;49.248;7.006;2023-08-06T05:22:00;0.20;;;0.20;;
75526;SDS011;64107;49.248;7.006;2023-08-06T05:24:27;0.68;;;0.32;;
75526;SDS011;64107;49.248;7.006;2023-08-06T05:26:53;2.17;;;0.47;;
75526;SDS011;64107;49.248;7.006;2023-08-06T05:29:19;1.45;;;0.30;;
75526;SDS011;64107;49.248;7.006;2023-08-06T05:31:45;2.22;;;0.35;;
75526;SDS011;64107;49.248;7.006;2023-08-06T05:34:11;1.88;;;0.22;;
75526;SDS011;64107;49.248;7.006;2023-08-06T05:36:37;1.73;;;0.88;;
75526;SDS011;64107;49.248;7.006;2023-08-06T05:39:03;0.30;;;0.30;;
75526;SDS011;64107;49.248;7.006;2023-08-06T05:41:29;0.30;;;0.22;;
75526;SDS011;64107;49.248;7.006;2023-08-06T05:43:55;4.53;;;0.40;;
75526;SDS011;64107;49.248;7.006;2023-08-06T05:46:21;0.45;;;0.25;;
75526;SDS011;64107;49.248;7.006;2023-08-06T05:48:48;1.17;;;0.35;;
75526;SDS011;64107;49.248;7.006;2023-08-06T05:51:16;0.28;;;0.28;;
75526;SDS011;64107;49.248;7.006;2023-08-06T05:53:42;0.20;;;0.20;;
75526;SDS011;64107;49.248;7.006;2023-08-06T05:56:08;0.32;;;0.32;;
75526;SDS011;64107;49.248;7.006;2023-08-06T05:58:34;0.32;;;0.30;;
75526;SDS011;64107;49.248;7.006;2023-08-06T06:01:00;0.88;;;0.25;;
75526;SDS011;64107;49.248;7.006;2023-08-06T06:03:26;1.13;;;0.20;;
75526;SDS011;64107;49.248;7.006;2023-08-06T06:05:52;0.80;;;0.57;;
75526;SDS011;64107;49.248;7.006;2023-08-06T06:08:18;0.20;;;0.20;;
75526;SDS011;64107;49.248;7.006;2023-08-06T06:10:44;0.17;;;0.17;;
75526;SDS011;64107;49.248;7.006;2023-08-06T06:13:10;1.20;;;0.40;;
75526;SDS011;64107;49.248;7.006;2023-08-06T06:15:36;0.10;;;0.10;;
75526;SDS011;64107;49.248;7.006;2023-08-06T06:18:03;0.28;;;0.20;;
75526;SDS011;64107;49.248;7.006;2023-08-06T06:20:31;0.20;;;0.20;;
75526;SDS011;64107;49.248;7.006;2023-08-06T06:22:58;0.38;;;0.30;;
75526;SDS011;64107;49.248;7.006;2023-08-06T06:25:24;0.73;;;0.30;;
75526;SDS011;64107;49.248;7.006;2023-08-06T06:27:50;0.13;;;0.13;;
75526;SDS011;64107;49.248;7.006;2023-08-06T06:30:17;0.60;;;0.25;;
75526;SDS011;64107;49.248;7.006;2023-08-06T06:32:43;0.45;;;0.28;;
75526;SDS011;64107;49.248;7.006;2023-08-06T06:35:09;0.95;;;0.30;;
75526;SDS011;64107;49.248;7.006;2023-08-06T06:37:35;0.28;;;0.13;;
75526;SDS011;64107;49.248;7.006;2023-08-06T06:40:01;0.15;;;0.13;;
75526;SDS011;64107;49.248;7.006;2023-08-06T06:42:28;0.32;;;0.28;;
75526;SDS011;64107;49.248;7.006;2023-08-06T06:44:54;0.28;;;0.25;;
75526;SDS011;64107;49.248;7.006;2023-08-06T06:47:20;0.20;;;0.20;;
75526;SDS011;64107;49.248;7.006;2023-08-06T06:49:46;0.30;;;0.30;;
75526;SDS011;64107;49.248;7.006;2023-08-06T06:52:12;0.20;;;0.20;;
75526;SDS011;64107;49.248;7.006;2023-08-06T06:54:39;1.92;;;0.30;;
75526;SDS011;64107;49.248;7.006;2023-08-06T06:57:05;0.20;;;0.20;;
75526;SDS011;64107;49.248;7.006;2023-08-06T06:59:31;0.35;;;0.20;;
75526;SDS011;64107;49.248;7.006;2023-08-06T07:01:57;0.52;;;0.20;;
75526;SDS011;64107;49.248;7.006;2023-08-06T07:04:23;2.55;;;0.28;;
75526;SDS011;64107;49.248;7.006;2023-08-06T07:06:49;0.10;;;0.10;;
75526;SDS011;64107;49.248;7.006;2023-08-06T07:09:17;0.98;;;0.20;;
75526;SDS011;64107;49.248;7.006;2023-08-06T07:11:43;0.32;;;0.22;;
75526;SDS011;64107;49.248;7.006;2023-08-06T07:14:09;0.38;;;0.30;;
75526;SDS011;64107;49.248;7.006;2023-08-06T07:16:35;0.10;;;0.10;;
75526;SDS011;64107;49.248;7.006;2023-08-06T07:19:01;0.30;;;0.30;;
75526;SDS011;64107;49.248;7.006;2023-08-06T07:21:27;0.30;;;0.30;;
75526;SDS011;64107;49.248;7.006;2023-08-06T07:23:53;0.65;;;0.60;;
75526;SDS011;64107;49.248;7.006;2023-08-06T07:26:19;0.57;;;0.50;;
75526;SDS011;64107;49.248;7.006;2023-08-06T07:28:45;0.40;;;0.32;;
75526;SDS011;64107;49.248;7.006;2023-08-06T07:31:11;0.93;;;0.40;;
75526;SDS011;64107;49.248;7.006;2023-08-06T07:33:37;0.50;;;0.38;;
75526;SDS011;64107;49.248;7.006;2023-08-06T07:36:07;0.10;;;0.10;;
75526;SDS011;64107;49.248;7.006;2023-08-06T07:38:36;1.45;;;0.40;;
75526;SDS011;64107;49.248;7.006;2023-08-06T07:41:03;1.08;;;0.68;;
75526;SDS011;64107;49.248;7.006;2023-08-06T07:43:29;0.85;;;0.60;;
75526;SDS011;64107;49.248;7.006;2023-08-06T07:45:59;1.35;;;0.32;;
75526;SDS011;64107;49.248;7.006;2023-08-06T07:48:26;0.68;;;0.32;;
75526;SDS011;64107;49.248;7.006;2023-08-06T07:50:52;0.75;;;0.57;;
75526;SDS011;64107;49.248;7.006;2023-08-06T07:53:22;0.65;;;0.50;;
75526;SDS011;64107;49.248;7.006;2023-08-06T07:55:52;1.10;;;0.47;;
75526;SDS011;64107;49.248;7.006;2023-08-06T07:58:19;0.30;;;0.30;;
75526;SDS011;64107;49.248;7.006;2023-08-06T08:00:45;1.00;;;0.20;;
75526;SDS011;64107;49.248;7.006;2023-08-06T08:03:12;0.60;;;0.25;;
75526;SDS011;64107;49.248;7.006;2023-08-06T08:05:39;0.40;;;0.38;;
75526;SDS011;64107;49.248;7.006;2023-08-06T08:08:05;0.70;;;0.38;;
75526;SDS011;64107;49.248;7.006;2023-08-06T08:10:32;0.60;;;0.30;;
75526;SDS011;64107;49.248;7.006;2023-08-06T08:12:58;0.75;;;0.20;;
75526;SDS011;64107;49.248;7.006;2023-08-06T08:15:24;0.88;;;0.55;;
75526;SDS011;64107;49.248;7.006;2023-08-06T08:17:51;0.77;;;0.50;;
75526;SDS011;64107;49.248;7.006;2023-08-06T08:20:17;1.02;;;0.60;;
75526;SDS011;64107;49.248;7.006;2023-08-06T08:22:43;0.65;;;0.55;;
75526;SDS011;64107;49.248;7.006;2023-08-06T08:25:09;0.75;;;0.50;;
75526;SDS011;64107;49.248;7.006;2023-08-06T08:27:36;1.13;;;0.47;;
75526;SDS011;64107;49.248;7.006;2023-08-06T08:30:02;1.48;;;0.98;;
75526;SDS011;64107;49.248;7.006;2023-08-06T08:32:28;0.80;;;0.60;;
75526;SDS011;64107;49.248;7.006;2023-08-06T08:34:54;0.63;;;0.43;;
75526;SDS011;64107;49.248;7.006;2023-08-06T08:37:20;0.90;;;0.55;;
75526;SDS011;64107;49.248;7.006;2023-08-06T08:39:46;0.52;;;0.50;;
75526;SDS011;64107;49.248;7.006;2023-08-06T08:42:12;1.73;;;0.88;;
75526;SDS011;64107;49.248;7.006;2023-08-06T08:44:39;1.98;;;1.20;;
75526;SDS011;64107;49.248;7.006;2023-08-06T08:47:15;1.10;;;0.50;;
75526;SDS011;64107;49.248;7.006;2023-08-06T08:49:41;2.03;;;1.08;;
75526;SDS011;64107;49.248;7.006;2023-08-06T08:52:08;1.63;;;1.13;;
75526;SDS011;64107;49.248;7.006;2023-08-06T08:54:38;1.25;;;1.00;;
75526;SDS011;64107;49.248;7.006;2023-08-06T08:57:04;2.17;;;1.45;;
75526;SDS011;64107;49.248;7.006;2023-08-06T08:59:32;3.47;;;1.40;;
75526;SDS011;64107;49.248;7.006;2023-08-06T09:02:00;1.70;;;1.20;;
75526;SDS011;64107;49.248;7.006;2023-08-06T09:04:26;5.10;;;2.30;;
75526;SDS011;64107;49.248;7.006;2023-08-06T09:06:56;3.95;;;2.05;;
75526;SDS011;64107;49.248;7.006;2023-08-06T09:09:28;3.25;;;1.95;;
75526;SDS011;64107;49.248;7.006;2023-08-06T09:12:02;2.90;;;1.30;;
75526;SDS011;64107;49.248;7.006;2023-08-06T09:14:39;2.35;;;1.63;;
75526;SDS011;64107;49.248;7.006;2023-08-06T09:17:05;2.80;;;1.83;;
75526;SDS011;64107;49.248;7.006;2023-08-06T09:19:31;4.90;;;2.90;;
75526;SDS011;64107;49.248;7.006;2023-08-06T09:21:58;3.08;;;1.60;;
75526;SDS011;64107;49.248;7.006;2023-08-06T09:24:24;4.50;;;2.50;;
75526;SDS011;64107;49.248;7.006;2023-08-06T09:26:51;4.15;;;2.10;;
75526;SDS011;64107;49.248;7.006;2023-08-06T09:29:17;4.75;;;2.03;;
75526;SDS011;64107;49.248;7.006;2023-08-06T09:31:44;5.72;;;2.85;;
75526;SDS011;64107;49.248;7.006;2023-08-06T09:34:20;4.40;;;1.48;;
75526;SDS011;64107;49.248;7.006;2023-08-06T09:39:16;6.72;;;1.70;;
75526;SDS011;64107;49.248;7.006;2023-08-06T09:41:43;3.28;;;1.90;;
75526;SDS011;64107;49.248;7.006;2023-08-06T09:44:19;1.95;;;1.27;;
75526;SDS011;64107;49.248;7.006;2023-08-06T09:46:50;1.77;;;1.63;;
75526;SDS011;64107;49.248;7.006;2023-08-06T09:49:18;3.50;;;1.77;;
75526;SDS011;64107;49.248;7.006;2023-08-06T09:51:45;1.98;;;1.23;;
75526;SDS011;64107;49.248;7.006;2023-08-06T09:54:16;1.27;;;0.75;;
75526;SDS011;64107;49.248;7.006;2023-08-06T09:56:43;3.33;;;1.63;;
75526;SDS011;64107;49.248;7.006;2023-08-06T09:59:10;3.90;;;2.45;;
75526;SDS011;64107;49.248;7.006;2023-08-06T10:01:36;3.95;;;2.13;;
75526;SDS011;64107;49.248;7.006;2023-08-06T10:04:03;2.92;;;2.00;;
75526;SDS011;64107;49.248;7.006;2023-08-06T10:06:33;4.97;;;2.03;;
75526;SDS011;64107;49.248;7.006;2023-08-06T10:09:03;3.28;;;2.35;;
75526;SDS011;64107;49.248;7.006;2023-08-06T10:11:29;4.43;;;2.40;;
75526;SDS011;64107;49.248;7.006;2023-08-06T10:14:04;3.92;;;2.15;;
75526;SDS011;64107;49.248;7.006;2023-08-06T10:16:34;2.85;;;1.35;;
75526;SDS011;64107;49.248;7.006;2023-08-06T10:19:02;3.80;;;1.83;;
75526;SDS011;64107;49.248;7.006;2023-08-06T10:21:32;2.67;;;1.77;;
75526;SDS011;64107;49.248;7.006;2023-08-06T10:23:58;2.97;;;1.85;;
75526;SDS011;64107;49.248;7.006;2023-08-06T10:26:27;2.50;;;1.65;;
75526;SDS011;64107;49.248;7.006;2023-08-06T10:28:53;2.90;;;1.45;;
75526;SDS011;64107;49.248;7.006;2023-08-06T10:31:20;3.13;;;1.80;;
75526;SDS011;64107;49.248;7.006;2023-08-06T10:34:12;2.22;;;1.30;;
75526;SDS011;64107;49.248;7.006;2023-08-06T10:36:44;3.67;;;2.28;;
75526;SDS011;64107;49.248;7.006;2023-08-06T10:39:13;7.32;;;1.63;;
75526;SDS011;64107;49.248;7.006;2023-08-06T10:41:39;3.65;;;2.20;;
75526;SDS011;64107;49.248;7.006;2023-08-06T10:44:08;4.60;;;2.33;;
75526;SDS011;64107;49.248;7.006;2023-08-06T10:46:35;2.13;;;1.33;;
75526;SDS011;64107;49.248;7.006;2023-08-06T10:49:01;6.28;;;2.33;;
75526;SDS011;64107;49.248;7.006;2023-08-06T10:51:28;3.17;;;1.90;;
75526;SDS011;64107;49.248;7.006;2023-08-06T10:53:54;4.53;;;2.13;;
75526;SDS011;64107;49.248;7.006;2023-08-06T10:56:21;2.95;;;1.98;;
75526;SDS011;64107;49.248;7.006;2023-08-06T10:58:48;4.18;;;1.73;;
75526;SDS011;64107;49.248;7.006;2023-08-06T11:01:16;3.70;;;1.80;;
75526;SDS011;64107;49.248;7.006;2023-08-06T11:03:42;5.45;;;1.67;;
75526;SDS011;64107;49.248;7.006;2023-08-06T11:06:10;3.95;;;1.60;;
75526;SDS011;64107;49.248;7.006;2023-08-06T11:08:37;1.73;;;1.13;;
75526;SDS011;64107;49.248;7.006;2023-08-06T11:11:10;1.55;;;0.82;;
75526;SDS011;64107;49.248;7.006;2023-08-06T11:13:38;3.53;;;1.40;;
75526;SDS011;64107;49.248;7.006;2023-08-06T11:16:08;0.80;;;0.60;;
75526;SDS011;64107;49.248;7.006;2023-08-06T11:18:34;3.67;;;2.08;;
75526;SDS011;64107;49.248;7.006;2023-08-06T11:21:00;5.30;;;1.55;;
75526;SDS011;64107;49.248;7.006;2023-08-06T11:23:27;2.05;;;1.50;;
75526;SDS011;64107;49.248;7.006;2023-08-06T11:25:54;2.45;;;1.10;;
75526;SDS011;64107;49.248;7.006;2023-08-06T11:28:23;1.60;;;0.75;;
75526;SDS011;64107;49.248;7.006;2023-08-06T11:30:49;2.92;;;1.30;;
75526;SDS011;64107;49.248;7.006;2023-08-06T11:33:22;2.15;;;1.10;;
75526;SDS011;64107;49.248;7.006;2023-08-06T11:35:50;2.15;;;0.95;;
75526;SDS011;64107;49.248;7.006;2023-08-06T11:38:19;3.08;;;1.35;;
75526;SDS011;64107;49.248;7.006;2023-08-06T11:40:46;0.60;;;0.40;;
75526;SDS011;64107;49.248;7.006;2023-08-06T11:43:12;3.88;;;0.85;;
75526;SDS011;64107;49.248;7.006;2023-08-06T11:45:39;1.95;;;0.80;;
75526;SDS011;64107;49.248;7.006;2023-08-06T11:48:06;1.27;;;0.75;;
75526;SDS011;64107;49.248;7.006;2023-08-06T11:50:35;1.80;;;1.02;;
75526;SDS011;64107;49.248;7.006;2023-08-06T11:53:03;4.80;;;1.05;;
75526;SDS011;64107;49.248;7.006;2023-08-06T11:55:30;4.15;;;1.00;;
75526;SDS011;64107;49.248;7.006;2023-08-06T11:57:56;2.60;;;1.40;;
75526;SDS011;64107;49.248;7.006;2023-08-06T12:00:23;1.70;;;1.17;;
75526;SDS011;64107;49.248;7.006;2023-08-06T12:02:50;1.35;;;1.10;;
75526;SDS011;64107;49.248;7.006;2023-08-06T12:05:21;1.92;;;1.13;;
75526;SDS011;64107;49.248;7.006;2023-08-06T12:07:51;1.33;;;0.80;;
75526;SDS011;64107;49.248;7.006;2023-08-06T12:10:19;0.55;;;0.47;;
75526;SDS011;64107;49.248;7.006;2023-08-06T12:12:46;3.70;;;1.02;;
75526;SDS011;64107;49.248;7.006;2023-08-06T12:15:13;1.38;;;0.75;;
75526;SDS011;64107;49.248;7.006;2023-08-06T12:17:39;1.45;;;0.77;;
75526;SDS011;64107;49.248;7.006;2023-08-06T12:20:06;1.95;;;0.88;;
75526;SDS011;64107;49.248;7.006;2023-08-06T12:24:05;2.75;;;1.20;;
75526;SDS011;64107;49.248;7.006;2023-08-06T12:26:32;10.07;;;5.75;;
75526;SDS011;64107;49.248;7.006;2023-08-06T12:28:58;13.45;;;8.77;;
75526;SDS011;64107;49.248;7.006;2023-08-06T12:31:24;8.85;;;4.80;;
75526;SDS011;64107;49.248;7.006;2023-08-06T12:33:50;5.25;;;3.28;;
75526;SDS011;64107;49.248;7.006;2023-08-06T12:36:17;3.33;;;2.25;;
75526;SDS011;64107;49.248;7.006;2023-08-06T12:38:43;2.25;;;1.30;;
75526;SDS011;64107;49.248;7.006;2023-08-06T12:41:09;2.15;;;1.13;;
75526;SDS011;64107;49.248;7.006;2023-08-06T12:43:35;0.90;;;0.70;;
75526;SDS011;64107;49.248;7.006;2023-08-06T12:46:01;1.90;;;0.90;;
75526;SDS011;64107;49.248;7.006;2023-08-06T12:48:28;2.53;;;0.80;;
75526;SDS011;64107;49.248;7.006;2023-08-06T12:50:54;2.70;;;1.27;;
75526;SDS011;64107;49.248;7.006;2023-08-06T12:53:20;2.45;;;1.10;;
75526;SDS011;64107;49.248;7.006;2023-08-06T12:55:48;1.80;;;1.17;;
75526;SDS011;64107;49.248;7.006;2023-08-06T12:58:14;3.08;;;1.23;;
75526;SDS011;64107;49.248;7.006;2023-08-06T13:00:40;1.42;;;0.98;;
75526;SDS011;64107;49.248;7.006;2023-08-06T13:03:06;1.25;;;0.82;;
75526;SDS011;64107;49.248;7.006;2023-08-06T13:05:32;1.13;;;0.80;;
75526;SDS011;64107;49.248;7.006;2023-08-06T13:07:58;1.80;;;0.90;;
75526;SDS011;64107;49.248;7.006;2023-08-06T13:10:24;2.05;;;0.82;;
75526;SDS011;64107;49.248;7.006;2023-08-06T13:12:52;2.55;;;0.50;;
75526;SDS011;64107;49.248;7.006;2023-08-06T13:15:18;1.52;;;0.60;;
75526;SDS011;64107;49.248;7.006;2023-08-06T13:17:46;3.00;;;1.00;;
75526;SDS011;64107;49.248;7.006;2023-08-06T13:20:12;0.85;;;0.57;;
75526;SDS011;64107;49.248;7.006;2023-08-06T13:22:38;1.85;;;1.10;;
75526;SDS011;64107;49.248;7.006;2023-08-06T13:25:04;0.40;;;0.38;;
75526;SDS011;64107;49.248;7.006;2023-08-06T13:27:30;1.08;;;0.70;;
75526;SDS011;64107;49.248;7.006;2023-08-06T13:29:56;2.88;;;0.32;;
75526;SDS011;64107;49.248;7.006;2023-08-06T13:32:22;1.10;;;0.80;;
75526;SDS011;64107;49.248;7.006;2023-08-06T13:34:48;0.95;;;0.75;;
75526;SDS011;64107;49.248;7.006;2023-08-06T13:37:14;0.85;;;0.47;;
75526;SDS011;64107;49.248;7.006;2023-08-06T13:39:40;1.75;;;1.20;;
75526;SDS011;64107;49.248;7.006;2023-08-06T13:42:06;1.23;;;0.80;;
75526;SDS011;64107;49.248;7.006;2023-08-06T13:44:32;1.90;;;0.90;;
75526;SDS011;64107;49.248;7.006;2023-08-06T13:47:00;0.60;;;0.60;;
75526;SDS011;64107;49.248;7.006;2023-08-06T13:49:27;0.75;;;0.65;;
75526;SDS011;64107;49.248;7.006;2023-08-06T13:51:53;1.85;;;0.52;;
75526;SDS011;64107;49.248;7.006;2023-08-06T13:54:19;1.23;;;0.70;;
75526;SDS011;64107;49.248;7.006;2023-08-06T13:56:46;2.25;;;0.75;;
75526;SDS011;64107;49.248;7.006;2023-08-06T13:59:12;1.38;;;0.70;;
75526;SDS011;64107;49.248;7.006;2023-08-06T14:01:39;1.50;;;0.90;;
75526;SDS011;64107;49.248;7.006;2023-08-06T14:04:05;0.80;;;0.77;;
75526;SDS011;64107;49.248;7.006;2023-08-06T14:06:31;1.45;;;0.85;;
75526;SDS011;64107;49.248;7.006;2023-08-06T14:08:57;0.60;;;0.60;;
75526;SDS011;64107;49.248;7.006;2023-08-06T14:11:23;0.88;;;0.65;;
75526;SDS011;64107;49.248;7.006;2023-08-06T14:13:49;1.20;;;0.70;;
75526;SDS011;64107;49.248;7.006;2023-08-06T14:16:15;1.85;;;0.70;;
75526;SDS011;64107;49.248;7.006;2023-08-06T14:18:41;5.15;;;0.68;;
75526;SDS011;64107;49.248;7.006;2023-08-06T14:21:08;1.67;;;0.80;;
75526;SDS011;64107;49.248;7.006;2023-08-06T14:23:34;0.98;;;0.50;;
75526;SDS011;64107;49.248;7.006;2023-08-06T14:26:00;0.90;;;0.80;;
75526;SDS011;64107;49.248;7.006;2023-08-06T14:28:26;1.85;;;1.08;;
75526;SDS011;64107;49.248;7.006;2023-08-06T14:30:52;2.50;;;0.70;;
75526;SDS011;64107;49.248;7.006;2023-08-06T14:33:18;1.85;;;0.98;;
75526;SDS011;64107;49.248;7.006;2023-08-06T14:35:44;0.82;;;0.68;;
75526;SDS011;64107;49.248;7.006;2023-08-06T14:38:10;1.20;;;0.80;;
75526;SDS011;64107;49.248;7.006;2023-08-06T14:40:36;1.23;;;1.13;;
75526;SDS011;64107;49.248;7.006;2023-08-06T14:43:07;2.30;;;1.10;;
75526;SDS011;64107;49.248;7.006;2023-08-06T14:45:37;0.80;;;0.60;;
75526;SDS011;64107;49.248;7.006;2023-08-06T14:48:04;1.10;;;1.00;;
75526;SDS011;64107;49.248;7.006;2023-08-06T14:50:30;1.23;;;0.80;;
75526;SDS011;64107;49.248;7.006;2023-08-06T14:52:56;1.40;;;1.10;;
75526;SDS011;64107;49.248;7.006;2023-08-06T14:55:23;4.82;;;1.48;;
75526;SDS011;64107;49.248;7.006;2023-08-06T14:57:50;2.65;;;1.30;;